Time;durP1;ratioP1;P1;durP2;ratioP2;P2;SDS_P1;SDS_P2;PMS_P1;PMS_P2;Temp;Humidity;BMP_temperature;BMP_pressure;BME280_temperature;BME280_humidity;BME280_pressure;Samples;Min_cycle;Max_cycle;Signal;HPM_P1;HPM_P2
2023/11/16 00:02:21;;;;;;;30.10;19.65;;;4.60;99.90;;;;;;5097796;28;20103;-85
2023/11/16 00:04:50;;;;;;;28.77;19.35;;;4.70;99.90;;;;;;5096605;28;20028;-84
2023/11/16 00:07:16;;;;;;;29.38;19.52;;;4.60;99.90;;;;;;5098868;28;20034;-85
2023/11/16 00:09:42;;;;;;;24.55;18.67;;;4.60;99.90;;;;;;5099984;28;20107;-86
2023/11/16 00:12:08;;;;;;;28.83;18.10;;;4.60;99.90;;;;;;5130631;28;20016;-84
2023/11/16 00:14:34;;;;;;;27.10;17.77;;;4.60;99.90;;;;;;5104669;28;20032;-86
2023/11/16 00:17:00;;;;;;;28.75;20.20;;;4.60;99.90;;;;;;5122971;28;20028;-85
2023/11/16 00:19:27;;;;;;;28.52;20.40;;;4.60;99.90;;;;;;5098726;28;20028;-85
2023/11/16 00:21:53;;;;;;;31.15;22.13;;;4.60;99.90;;;;;;5101646;28;20020;-85
2023/11/16 00:24:19;;;;;;;26.15;19.67;;;4.60;99.90;;;;;;5130315;28;20055;-83
2023/11/16 00:26:46;;;;;;;25.90;18.90;;;4.60;99.90;;;;;;5112951;28;20034;-83
2023/11/16 00:29:12;;;;;;;25.10;18.90;;;4.60;99.90;;;;;;5098658;28;20026;-84
2023/11/16 00:31:38;;;;;;;31.52;21.45;;;4.50;99.90;;;;;;5094788;28;20092;-84
2023/11/16 00:34:06;;;;;;;24.90;17.70;;;4.50;99.90;;;;;;5101690;28;20035;-83
2023/11/16 00:36:33;;;;;;;;;;;4.50;99.90;;;;;;5104967;28;20008;-84
2023/11/16 00:38:58;;;;;;;33.95;20.00;;;4.50;99.90;;;;;;5099213;28;19935;-84
2023/11/16 00:41:27;;;;;;;33.50;20.33;;;4.40;99.90;;;;;;5102822;28;20059;-83
2023/11/16 00:43:53;;;;;;;29.63;19.75;;;4.30;99.90;;;;;;5136981;28;20042;-84
2023/11/16 00:46:21;;;;;;;30.13;19.88;;;4.30;99.90;;;;;;5116999;28;20028;-84
2023/11/16 00:48:47;;;;;;;36.45;20.30;;;4.30;99.90;;;;;;5103498;28;20016;-85
2023/11/16 00:51:13;;;;;;;27.63;20.23;;;4.30;99.90;;;;;;5094068;28;20104;-84
2023/11/16 00:53:42;;;;;;;34.63;19.00;;;4.20;99.90;;;;;;5079736;28;20017;-86
2023/11/16 00:56:09;;;;;;;34.40;21.70;;;4.20;99.90;;;;;;5109982;28;20019;-84
2023/11/16 00:58:37;;;;;;;31.17;19.85;;;4.10;99.90;;;;;;5104321;28;20094;-86
2023/11/16 01:01:05;;;;;;;35.25;21.38;;;4.00;99.90;;;;;;5100007;28;20060;-84
2023/11/16 01:03:31;;;;;;;33.90;21.90;;;3.90;99.90;;;;;;5076095;28;20036;-86
2023/11/16 01:05:57;;;;;;;31.05;19.95;;;3.90;99.90;;;;;;5119219;28;20600;-83
2023/11/16 01:08:23;;;;;;;35.30;22.35;;;3.80;99.90;;;;;;5099056;28;20059;-85
2023/11/16 01:10:49;;;;;;;34.03;20.33;;;3.70;99.90;;;;;;5079537;28;20028;-85
2023/11/16 01:13:24;;;;;;;34.75;22.38;;;3.70;99.90;;;;;;5098774;28;20016;-84
2023/11/16 01:15:51;;;;;;;33.00;21.80;;;3.70;99.90;;;;;;5103504;28;20028;-84
2023/11/16 01:18:17;;;;;;;37.63;20.73;;;3.70;99.90;;;;;;5117164;28;20013;-85
2023/11/16 01:20:43;;;;;;;28.40;19.95;;;3.70;99.90;;;;;;5096699;28;20024;-83
2023/11/16 01:23:12;;;;;;;32.05;20.10;;;3.80;99.90;;;;;;5096758;28;20047;-86
2023/11/16 01:25:41;;;;;;;31.88;20.58;;;3.80;99.90;;;;;;5092636;28;20554;-84
2023/11/16 01:28:10;;;;;;;39.17;20.35;;;3.80;99.90;;;;;;5108997;28;20034;-85
2023/11/16 01:30:37;;;;;;;36.88;20.08;;;3.80;99.90;;;;;;5102842;28;20011;-83
2023/11/16 01:33:07;;;;;;;34.17;17.85;;;3.90;99.90;;;;;;5102287;28;20024;-85
2023/11/16 01:35:42;;;;;;;33.08;19.30;;;3.90;99.90;;;;;;5084182;28;20032;-85
2023/11/16 01:38:08;;;;;;;30.70;19.33;;;3.90;99.90;;;;;;5096683;28;20054;-85
2023/11/16 01:40:36;;;;;;;35.97;19.95;;;3.90;99.90;;;;;;5100545;28;20047;-84
2023/11/16 01:43:02;;;;;;;;;;;4.00;99.90;;;;;;5099501;28;20036;-83
2023/11/16 01:45:30;;;;;;;28.75;19.50;;;4.00;99.90;;;;;;5078598;28;19916;-85
2023/11/16 01:48:06;;;;;;;29.92;18.55;;;3.90;99.90;;;;;;5096851;28;20380;-84
2023/11/16 01:50:35;;;;;;;27.65;17.52;;;3.90;99.90;;;;;;5085959;28;20016;-85
2023/11/16 01:53:05;;;;;;;31.60;17.75;;;3.90;99.90;;;;;;5101949;28;20104;-84
2023/11/16 01:55:36;;;;;;;30.45;19.00;;;3.90;99.90;;;;;;5096755;28;20065;-84
2023/11/16 01:58:03;;;;;;;25.77;16.60;;;3.90;99.90;;;;;;5095684;28;20028;-85
2023/11/16 02:00:30;;;;;;;25.42;16.17;;;4.00;99.90;;;;;;5099900;28;20451;-85
2023/11/16 02:03:03;;;;;;;32.92;16.13;;;3.90;99.90;;;;;;5100464;28;20073;-85
2023/11/16 02:05:32;;;;;;;25.25;16.58;;;3.80;99.90;;;;;;5099836;28;20024;-85
2023/11/16 02:08:03;;;;;;;30.98;16.35;;;3.70;99.90;;;;;;5096994;28;20031;-85
2023/11/16 02:10:30;;;;;;;30.90;17.73;;;3.70;99.90;;;;;;5077836;28;20024;-84
2023/11/16 02:12:59;;;;;;;27.10;17.25;;;3.80;99.90;;;;;;5100294;28;20024;-86
2023/11/16 02:15:27;;;;;;;26.17;14.90;;;3.80;99.90;;;;;;5077330;28;20121;-84
2023/11/16 02:17:54;;;;;;;27.38;16.75;;;3.70;99.90;;;;;;5094332;28;20027;-84
2023/11/16 02:20:22;;;;;;;21.98;14.70;;;3.70;99.90;;;;;;5076823;28;20035;-85
2023/11/16 02:22:51;;;;;;;24.73;14.55;;;3.60;99.90;;;;;;5095658;28;20490;-84
2023/11/16 02:25:20;;;;;;;26.60;15.07;;;3.60;99.90;;;;;;5104984;28;20019;-84
2023/11/16 02:27:46;;;;;;;23.70;14.05;;;3.70;99.90;;;;;;5092256;28;20019;-85
2023/11/16 02:30:15;;;;;;;18.33;12.40;;;3.70;99.90;;;;;;5103722;28;20022;-83
2023/11/16 02:32:41;;;;;;;21.05;12.48;;;3.70;99.90;;;;;;5077923;28;20016;-84
2023/11/16 02:35:08;;;;;;;20.52;11.95;;;3.70;99.90;;;;;;5083879;28;20030;-86
2023/11/16 02:37:35;;;;;;;;;;;3.70;99.90;;;;;;5098618;28;20085;-83
2023/11/16 02:40:01;;;;;;;19.02;10.38;;;3.70;99.90;;;;;;5098155;28;20329;-85
2023/11/16 02:42:26;;;;;;;19.15;11.18;;;3.60;99.90;;;;;;5124176;28;20051;-84
2023/11/16 02:44:57;;;;;;;21.40;11.95;;;3.60;99.90;;;;;;5081516;28;20036;-84
2023/11/16 02:47:24;;;;;;;21.77;11.60;;;3.60;99.90;;;;;;5096650;28;20027;-84
2023/11/16 02:49:52;;;;;;;17.48;10.88;;;3.60;99.90;;;;;;5090705;28;20495;-84
2023/11/16 02:52:18;;;;;;;21.60;11.48;;;3.60;99.90;;;;;;5079573;28;20031;-84
2023/11/16 02:54:44;;;;;;;20.70;10.82;;;3.60;99.90;;;;;;5113594;28;20073;-85
2023/11/16 02:57:10;;;;;;;16.65;11.02;;;3.60;99.90;;;;;;5102852;28;20027;-85
2023/11/16 02:59:36;;;;;;;16.40;10.05;;;3.60;99.90;;;;;;5112838;28;20020;-84
2023/11/16 03:02:07;;;;;;;18.52;10.85;;;3.50;99.90;;;;;;5082521;28;20098;-84
2023/11/16 03:04:36;;;;;;;20.40;10.77;;;3.50;99.90;;;;;;5105657;28;20059;-86
2023/11/16 03:07:01;;;;;;;18.98;11.50;;;3.50;99.90;;;;;;5112149;28;20023;-85
2023/11/16 03:09:27;;;;;;;17.40;10.73;;;3.50;99.90;;;;;;5085846;28;20023;-85
2023/11/16 03:11:53;;;;;;;20.27;12.63;;;3.50;99.90;;;;;;5088563;28;20027;-88
2023/11/16 03:14:19;;;;;;;18.85;10.15;;;3.60;99.90;;;;;;5106799;28;20435;-86
2023/11/16 03:16:46;;;;;;;18.58;11.45;;;3.60;99.90;;;;;;5102027;28;20016;-86
2023/11/16 03:19:12;;;;;;;18.80;12.02;;;3.60;99.90;;;;;;5109532;28;20030;-85
2023/11/16 03:21:38;;;;;;;19.42;12.38;;;3.70;99.90;;;;;;5103048;28;20031;-85
2023/11/16 03:24:04;;;;;;;17.40;11.93;;;3.70;99.90;;;;;;5095519;28;20039;-84
2023/11/16 03:26:31;;;;;;;18.50;12.07;;;3.70;99.90;;;;;;5101185;28;20473;-85
2023/11/16 03:28:59;;;;;;;23.02;11.70;;;3.70;99.90;;;;;;5103003;28;20027;-86
2023/11/16 03:31:25;;;;;;;23.38;12.50;;;3.70;99.90;;;;;;5082276;28;20023;-84
2023/11/16 03:33:51;;;;;;;18.40;12.40;;;3.70;99.90;;;;;;5110014;28;20032;-82
2023/11/16 03:36:17;;;;;;;24.45;12.48;;;3.70;99.90;;;;;;5130201;28;20076;-82
2023/11/16 03:38:43;;;;;;;20.25;12.13;;;3.70;99.90;;;;;;5104643;28;20023;-85
2023/11/16 03:41:09;;;;;;;18.45;12.45;;;3.70;99.90;;;;;;5114239;28;20011;-86
2023/11/16 03:43:35;;;;;;;24.15;13.32;;;3.70;99.90;;;;;;5104690;28;20460;-87
2023/11/16 03:46:02;;;;;;;22.25;13.35;;;3.70;99.90;;;;;;5103697;28;20095;-84
2023/11/16 03:48:28;;;;;;;23.73;13.25;;;3.70;99.90;;;;;;5095835;28;20017;-85
2023/11/16 03:50:53;;;;;;;18.80;13.77;;;3.70;99.90;;;;;;5096364;28;20049;-84
2023/11/16 03:53:19;;;;;;;23.25;13.80;;;3.60;99.90;;;;;;5115466;28;20105;-85
2023/11/16 03:55:46;;;;;;;23.65;14.18;;;3.60;99.90;;;;;;5103186;28;20444;-83
2023/11/16 03:58:12;;;;;;;22.65;14.15;;;3.60;99.90;;;;;;5100742;28;20012;-83
2023/11/16 04:00:37;;;;;;;19.77;13.85;;;3.50;99.90;;;;;;5098014;28;20484;-85
2023/11/16 04:03:03;;;;;;;18.48;13.25;;;3.50;99.90;;;;;;5081219;28;20043;-82
2023/11/16 04:05:32;;;;;;;22.15;13.70;;;3.50;99.90;;;;;;5104959;28;20034;-83
2023/11/16 04:07:59;;;;;;;22.25;13.65;;;3.50;99.90;;;;;;5094341;28;20110;-84
2023/11/16 04:10:25;;;;;;;20.83;13.87;;;3.60;99.90;;;;;;5113132;28;20499;-85
2023/11/16 04:12:50;;;;;;;19.23;13.20;;;3.60;99.90;;;;;;5101055;28;20276;-84
2023/11/16 04:15:17;;;;;;;21.75;12.45;;;3.60;99.90;;;;;;5113669;28;20024;-84
2023/11/16 04:17:44;;;;;;;18.30;12.35;;;3.60;99.90;;;;;;5102639;28;20019;-85
2023/11/16 04:20:12;;;;;;;18.80;11.95;;;3.50;99.90;;;;;;5096280;28;20051;-84
2023/11/16 04:22:39;;;;;;;17.30;11.43;;;3.50;99.90;;;;;;5093900;28;20081;-86
2023/11/16 04:25:29;;;;;;;18.42;12.73;;;3.50;99.90;;;;;;5087499;28;20480;-85
2023/11/16 04:28:04;;;;;;;17.83;11.63;;;3.50;99.90;;;;;;5101040;28;20028;-85
2023/11/16 04:30:34;;;;;;;15.38;9.95;;;3.50;99.90;;;;;;5094607;28;20115;-85
2023/11/16 04:33:01;;;;;;;18.65;12.13;;;3.50;99.90;;;;;;5093908;28;20020;-86
2023/11/16 04:35:27;;;;;;;14.38;10.05;;;3.40;99.90;;;;;;5094168;28;20020;-87
2023/11/16 04:37:56;;;;;;;20.17;11.45;;;3.40;99.90;;;;;;5098838;28;20465;-86
2023/11/16 04:40:25;;;;;;;14.98;9.95;;;3.50;99.90;;;;;;5091106;28;20031;-87
2023/11/16 04:42:51;;;;;;;19.67;10.98;;;3.50;99.90;;;;;;5085691;28;20061;-86
2023/11/16 04:45:18;;;;;;;13.90;10.48;;;3.50;99.90;;;;;;5098878;28;20127;-86
2023/11/16 04:47:45;;;;;;;15.10;9.43;;;3.50;99.90;;;;;;5102509;28;20016;-86
2023/11/16 04:50:13;;;;;;;16.40;10.30;;;3.60;99.90;;;;;;5098220;28;20473;-86
2023/11/16 04:52:46;;;;;;;15.43;10.77;;;3.60;99.90;;;;;;5095049;28;20027;-86
2023/11/16 04:55:12;;;;;;;15.68;11.25;;;3.60;99.90;;;;;;5094177;28;20059;-84
2023/11/16 04:57:38;;;;;;;16.98;11.82;;;3.60;99.90;;;;;;5108629;28;20086;-87
2023/11/16 05:00:11;;;;;;;17.27;10.95;;;3.60;99.90;;;;;;5097743;28;20032;-85
2023/11/16 05:02:37;;;;;;;16.83;11.00;;;3.60;99.90;;;;;;5108196;28;20073;-84
2023/11/16 05:05:04;;;;;;;15.77;11.05;;;3.50;99.90;;;;;;5097013;28;20036;-86
2023/11/16 05:07:30;;;;;;;12.80;9.00;;;3.50;99.90;;;;;;5103386;28;20054;-86
2023/11/16 05:09:58;;;;;;;11.02;8.10;;;3.50;99.90;;;;;;5098315;28;20043;-87
2023/11/16 05:12:28;;;;;;;15.60;9.60;;;3.40;99.90;;;;;;5098277;28;20016;-86
2023/11/16 05:14:54;;;;;;;14.23;9.95;;;3.40;99.90;;;;;;5096999;28;20473;-86
2023/11/16 05:17:21;;;;;;;14.63;9.38;;;3.40;99.90;;;;;;5098706;28;20016;-87
2023/11/16 05:19:47;;;;;;;12.70;8.65;;;3.50;99.90;;;;;;5078799;28;20031;-85
2023/11/16 05:22:14;;;;;;;13.60;10.27;;;3.40;99.90;;;;;;5093005;28;20035;-85
2023/11/16 05:24:39;;;;;;;13.57;10.20;;;3.40;99.90;;;;;;5106343;28;20074;-86
2023/11/16 05:27:05;;;;;;;15.75;10.50;;;3.40;99.90;;;;;;5101818;28;20020;-87
2023/11/16 05:29:34;;;;;;;16.65;10.63;;;3.40;99.90;;;;;;5099795;28;20495;-86
2023/11/16 05:32:00;;;;;;;14.27;10.93;;;3.50;99.90;;;;;;5100568;28;20024;-87
2023/11/16 05:34:29;;;;;;;14.93;12.02;;;3.50;99.90;;;;;;5102774;28;20322;-87
2023/11/16 05:36:55;;;;;;;14.95;11.57;;;3.50;99.90;;;;;;5117625;28;20030;-84
2023/11/16 05:39:22;;;;;;;19.42;11.70;;;3.50;99.90;;;;;;5097355;28;20446;-87
2023/11/16 05:41:48;;;;;;;16.92;10.63;;;3.50;99.90;;;;;;5104505;28;20050;-84
2023/11/16 05:44:14;;;;;;;20.50;12.27;;;3.50;99.90;;;;;;5110970;28;20531;-86
2023/11/16 05:46:40;;;;;;;14.25;11.93;;;3.50;99.90;;;;;;5106724;28;20066;-85
2023/11/16 05:49:09;;;;;;;17.67;12.23;;;3.50;99.90;;;;;;5086167;28;20114;-86
2023/11/16 05:51:38;;;;;;;15.18;11.65;;;3.50;99.90;;;;;;5107094;28;20432;-87
2023/11/16 05:54:07;;;;;;;15.52;11.35;;;3.40;99.90;;;;;;5116897;28;20026;-86
2023/11/16 05:56:40;;;;;;;14.25;12.00;;;3.50;99.90;;;;;;5098993;28;20055;-87
2023/11/16 05:59:08;;;;;;;16.73;12.55;;;3.50;99.90;;;;;;5079471;28;20016;-86
2023/11/16 06:01:35;;;;;;;18.83;11.88;;;3.50;99.90;;;;;;5097688;28;20103;-85
2023/11/16 06:04:01;;;;;;;15.82;11.50;;;3.50;99.90;;;;;;5115751;28;20122;-86
2023/11/16 06:06:27;;;;;;;14.10;9.68;;;3.50;99.90;;;;;;5087279;28;20028;-86
2023/11/16 06:08:53;;;;;;;13.40;9.55;;;3.40;99.90;;;;;;5095883;28;20356;-87
2023/11/16 06:11:19;;;;;;;17.48;11.25;;;3.30;99.90;;;;;;5109356;28;20523;-87
2023/11/16 06:13:45;;;;;;;18.33;14.02;;;3.30;99.90;;;;;;5112456;28;20022;-87
2023/11/16 06:16:12;;;;;;;13.88;11.68;;;3.20;99.90;;;;;;5123394;28;20016;-86
2023/11/16 06:18:39;;;;;;;15.82;11.50;;;3.10;99.90;;;;;;5110861;28;20019;-83
2023/11/16 06:21:06;;;;;;;27.63;20.65;;;3.10;99.90;;;;;;5130903;28;20020;-88
2023/11/16 06:23:32;;;;;;;15.35;10.65;;;3.10;99.90;;;;;;5124815;28;20020;-88
2023/11/16 06:25:58;;;;;;;13.93;9.38;;;3.10;99.90;;;;;;5089918;28;20067;-87
2023/11/16 06:28:24;;;;;;;11.45;9.68;;;3.10;99.90;;;;;;5100723;28;20456;-85
2023/11/16 06:30:50;;;;;;;15.43;10.63;;;3.20;99.90;;;;;;5104356;28;20059;-84
2023/11/16 06:33:16;;;;;;;13.00;9.57;;;3.20;99.90;;;;;;5085825;28;20630;-85
2023/11/16 06:35:42;;;;;;;28.60;12.23;;;3.20;99.90;;;;;;5100640;28;20060;-84
2023/11/16 06:38:09;;;;;;;9.05;6.90;;;3.10;99.90;;;;;;5095989;28;20031;-86
2023/11/16 06:40:35;;;;;;;11.55;6.82;;;3.10;99.90;;;;;;5105072;28;20019;-86
2023/11/16 06:43:03;;;;;;;9.02;6.00;;;3.10;99.90;;;;;;5116148;28;20043;-87
2023/11/16 06:45:29;;;;;;;;;;;3.10;99.90;;;;;;5118522;28;20035;-85
2023/11/16 06:47:55;;;;;;;10.68;6.75;;;3.00;99.90;;;;;;5126147;28;19903;-86
2023/11/16 06:50:22;;;;;;;12.32;7.88;;;3.00;99.90;;;;;;5095423;28;20020;-85
2023/11/16 06:52:49;;;;;;;18.30;11.45;;;3.00;99.90;;;;;;5095663;28;20074;-85
2023/11/16 06:55:16;;;;;;;13.32;9.77;;;3.00;99.90;;;;;;5103076;28;20022;-85
2023/11/16 06:57:43;;;;;;;;;;;3.00;99.90;;;;;;5122581;28;20471;-85
2023/11/16 07:00:15;;;;;;;14.73;11.53;;;3.00;99.90;;;;;;5116077;28;19964;-86
2023/11/16 07:02:45;;;;;;;13.60;10.10;;;3.00;99.90;;;;;;5120868;28;20267;-87
2023/11/16 07:05:12;;;;;;;23.20;11.40;;;3.00;99.90;;;;;;5116109;28;20032;-86
2023/11/16 07:07:41;;;;;;;20.25;11.70;;;3.10;99.90;;;;;;5098233;28;20491;-87
2023/11/16 07:10:08;;;;;;;14.75;9.98;;;3.10;99.90;;;;;;5101056;28;20092;-88
2023/11/16 07:12:34;;;;;;;;;;;3.10;99.90;;;;;;5097903;28;20476;-87
2023/11/16 07:15:04;;;;;;;18.02;12.88;;;3.00;99.90;;;;;;5116082;28;19908;-89
2023/11/16 07:17:29;;;;;;;16.45;11.10;;;3.00;99.90;;;;;;5110125;28;20020;-85
2023/11/16 07:19:55;;;;;;;15.02;11.40;;;2.90;99.90;;;;;;5103738;28;20024;-86
2023/11/16 07:22:21;;;;;;;14.93;10.15;;;2.90;99.90;;;;;;5098248;28;20489;-87
2023/11/16 07:24:49;;;;;;;13.48;10.63;;;3.00;99.90;;;;;;5118235;28;20091;-87
2023/11/16 07:27:15;;;;;;;15.57;12.02;;;3.00;99.90;;;;;;5129682;28;20500;-87
2023/11/16 07:29:43;;;;;;;15.20;12.05;;;3.10;99.90;;;;;;5119702;28;20046;-86
2023/11/16 07:32:09;;;;;;;13.95;12.15;;;3.10;99.90;;;;;;5110824;28;20042;-87
2023/11/16 07:34:39;;;;;;;16.20;11.73;;;3.10;99.90;;;;;;5122351;28;20027;-85
2023/11/16 07:37:05;;;;;;;13.63;9.75;;;3.20;99.90;;;;;;5117307;28;20012;-87
2023/11/16 07:39:31;;;;;;;17.38;10.05;;;3.20;99.90;;;;;;5114158;28;20031;-86
2023/11/16 07:41:59;;;;;;;15.90;12.60;;;3.10;99.90;;;;;;5104286;28;20040;-85
2023/11/16 07:44:25;;;;;;;16.83;12.13;;;3.10;99.90;;;;;;5100524;28;20118;-86
2023/11/16 07:46:51;;;;;;;20.30;10.68;;;3.10;99.90;;;;;;5095608;28;20024;-85
2023/11/16 07:49:17;;;;;;;16.05;12.38;;;3.20;99.90;;;;;;5112380;28;20020;-86
2023/11/16 07:51:45;;;;;;;18.38;11.32;;;3.20;99.90;;;;;;5104603;28;20019;-87
2023/11/16 07:54:11;;;;;;;10.50;8.93;;;3.20;99.90;;;;;;5116286;28;20083;-85
2023/11/16 07:56:49;;;;;;;12.68;8.90;;;3.30;99.90;;;;;;5099122;28;20016;-88
2023/11/16 07:59:18;;;;;;;12.48;7.72;;;3.20;99.90;;;;;;5097922;28;20056;-85
2023/11/16 08:01:55;;;;;;;7.68;6.75;;;3.10;99.90;;;;;;5102347;28;20024;-85
2023/11/16 08:04:26;;;;;;;8.55;6.15;;;3.20;99.90;;;;;;5077297;28;20143;-87
2023/11/16 08:06:55;;;;;;;9.02;5.35;;;3.20;99.90;;;;;;5112116;28;20020;-89
2023/11/16 08:09:26;;;;;;;7.30;5.40;;;3.10;99.90;;;;;;5116573;28;20043;-88
2023/11/16 08:11:54;;;;;;;6.38;5.43;;;3.10;99.90;;;;;;5100852;28;20051;-86
2023/11/16 08:14:24;;;;;;;9.20;5.95;;;3.10;99.90;;;;;;5114415;28;20034;-85
2023/11/16 08:16:56;;;;;;;7.03;5.10;;;3.10;99.90;;;;;;5113773;28;20036;-88
2023/11/16 08:19:23;;;;;;;7.57;5.82;;;3.00;99.90;;;;;;5094720;28;20020;-87
2023/11/16 08:21:49;;;;;;;5.83;5.00;;;3.00;99.90;;;;;;5094147;28;20023;-85
2023/11/16 08:24:15;;;;;;;11.63;6.68;;;3.10;99.90;;;;;;5109362;28;20481;-85
2023/11/16 08:26:42;;;;;;;8.90;5.80;;;3.10;99.90;;;;;;5107889;28;20507;-88
2023/11/16 08:29:08;;;;;;;9.15;5.32;;;3.10;99.90;;;;;;5113159;28;20024;-87
2023/11/16 08:31:35;;;;;;;13.10;6.82;;;3.10;99.90;;;;;;5078550;28;20454;-85
2023/11/16 08:34:01;;;;;;;62.90;16.15;;;3.20;99.90;;;;;;5121652;28;20035;-86
2023/11/16 08:36:26;;;;;;;8.85;7.10;;;3.20;99.90;;;;;;5115589;28;20016;-86
2023/11/16 08:38:55;;;;;;;9.65;5.93;;;3.30;99.90;;;;;;5076657;28;20020;-85
2023/11/16 08:41:22;;;;;;;10.25;6.88;;;3.20;99.90;;;;;;5096424;28;20155;-85
2023/11/16 08:43:52;;;;;;;11.73;6.85;;;3.10;99.90;;;;;;5095992;28;20024;-87
2023/11/16 08:46:24;;;;;;;13.18;6.75;;;3.10;99.90;;;;;;5094524;28;20486;-87
2023/11/16 08:48:51;;;;;;;13.85;8.10;;;3.10;99.90;;;;;;5076368;28;20123;-86
2023/11/16 08:51:17;;;;;;;11.20;6.83;;;3.10;99.90;;;;;;5090586;28;20023;-86
2023/11/16 08:53:44;;;;;;;13.73;7.15;;;3.10;99.90;;;;;;5100722;28;20044;-87
2023/11/16 08:56:11;;;;;;;7.90;5.38;;;3.10;99.90;;;;;;5097251;28;20115;-87
2023/11/16 08:58:47;;;;;;;11.30;6.85;;;3.10;99.90;;;;;;5097193;28;20016;-87
2023/11/16 09:01:18;;;;;;;9.23;7.15;;;3.00;99.90;;;;;;5123061;28;20018;-85
2023/11/16 09:03:50;;;;;;;10.95;6.78;;;3.10;99.90;;;;;;5106793;28;20020;-87
2023/11/16 09:06:18;;;;;;;11.27;7.18;;;3.00;99.90;;;;;;5102036;28;20064;-88
2023/11/16 09:08:48;;;;;;;11.88;6.38;;;2.90;99.90;;;;;;5092709;28;20031;-86
2023/11/16 09:11:20;;;;;;;11.68;5.57;;;2.90;99.90;;;;;;5104820;28;20043;-88
2023/11/16 09:13:46;;;;;;;12.10;6.85;;;2.80;99.90;;;;;;5114653;28;20012;-86
2023/11/16 09:16:12;;;;;;;10.82;7.25;;;2.80;99.90;;;;;;5117115;28;20023;-87
2023/11/16 09:18:41;;;;;;;7.18;6.28;;;2.80;99.90;;;;;;5094911;28;20019;-87
2023/11/16 09:21:14;;;;;;;10.60;7.32;;;2.90;99.90;;;;;;5093484;28;20028;-86
2023/11/16 09:23:41;;;;;;;10.15;6.15;;;2.90;99.90;;;;;;5100107;28;20024;-87
2023/11/16 09:26:09;;;;;;;8.10;6.32;;;2.90;99.90;;;;;;5089607;28;20112;-87
2023/11/16 09:28:38;;;;;;;8.65;6.57;;;2.90;99.90;;;;;;5111466;28;20015;-84
2023/11/16 09:31:10;;;;;;;12.02;8.15;;;2.90;99.90;;;;;;5100281;28;20107;-87
2023/11/16 09:33:38;;;;;;;12.25;8.27;;;2.80;99.90;;;;;;5118755;28;20166;-87
2023/11/16 09:36:04;;;;;;;9.13;6.53;;;2.80;99.90;;;;;;5116185;28;20024;-86
2023/11/16 09:38:30;;;;;;;9.45;6.97;;;2.70;99.90;;;;;;5102538;28;20027;-87
2023/11/16 09:41:01;;;;;;;8.70;6.38;;;2.70;99.90;;;;;;5109935;28;20497;-88
2023/11/16 09:43:30;;;;;;;8.82;7.13;;;2.70;99.90;;;;;;5100062;28;20031;-89
2023/11/16 09:46:02;;;;;;;9.15;6.80;;;2.80;99.90;;;;;;5087355;28;20028;-87
2023/11/16 09:48:29;;;;;;;11.93;6.82;;;2.70;99.90;;;;;;5102123;28;20094;-87
2023/11/16 09:50:55;;;;;;;10.15;6.65;;;2.70;99.90;;;;;;5118093;28;20023;-87
2023/11/16 09:53:26;;;;;;;10.00;6.80;;;2.70;99.90;;;;;;5103182;28;20043;-86
2023/11/16 09:55:58;;;;;;;9.80;6.78;;;2.70;99.90;;;;;;5090619;28;20077;-88
2023/11/16 09:58:25;;;;;;;8.85;6.22;;;2.70;99.90;;;;;;5116810;28;20426;-87
2023/11/16 10:00:56;;;;;;;13.45;9.68;;;2.70;99.90;;;;;;5117373;28;20106;-87
2023/11/16 10:03:26;;;;;;;10.75;8.20;;;2.80;99.90;;;;;;5116699;28;20019;-86
2023/11/16 10:05:57;;;;;;;14.85;7.85;;;2.80;99.90;;;;;;5099349;28;20039;-88
2023/11/16 10:08:28;;;;;;;12.23;7.35;;;2.80;99.90;;;;;;5080919;28;20088;-87
2023/11/16 10:10:56;;;;;;;9.52;7.32;;;2.70;99.90;;;;;;5105136;28;20021;-87
2023/11/16 10:13:26;;;;;;;11.27;7.05;;;2.70;99.90;;;;;;5104762;28;20020;-86
2023/11/16 10:15:53;;;;;;;10.10;6.85;;;2.60;99.90;;;;;;5114820;28;20034;-88
2023/11/16 10:18:20;;;;;;;9.40;7.10;;;2.60;99.90;;;;;;5128996;28;20020;-87
2023/11/16 10:20:46;;;;;;;9.88;6.65;;;2.50;99.90;;;;;;5115034;28;20012;-89
2023/11/16 10:23:12;;;;;;;10.40;6.03;;;2.50;99.90;;;;;;5098424;28;20145;-87
2023/11/16 10:25:39;;;;;;;8.23;7.35;;;2.40;99.90;;;;;;5094317;28;20035;-88
2023/11/16 10:28:22;;;;;;;9.23;6.55;;;2.40;99.90;;;;;;5096469;28;20028;-88
2023/11/16 10:30:50;;;;;;;8.55;5.22;;;2.40;99.90;;;;;;5100253;28;20031;-87
2023/11/16 10:33:16;;;;;;;;;;;2.40;99.90;;;;;;5113162;28;20049;-87
2023/11/16 10:35:46;;;;;;;10.68;6.15;;;2.40;99.90;;;;;;5129575;28;19904;-87
2023/11/16 10:38:16;;;;;;;9.48;6.45;;;2.40;99.90;;;;;;5116503;28;20111;-87
2023/11/16 10:40:44;;;;;;;12.60;7.22;;;2.50;99.90;;;;;;5088316;28;20025;-87
2023/11/16 10:43:11;;;;;;;12.88;7.55;;;2.50;99.90;;;;;;5096585;28;20094;-88
2023/11/16 10:45:42;;;;;;;12.73;7.05;;;2.50;99.90;;;;;;5078581;28;20035;-89
2023/11/16 10:48:09;;;;;;;10.05;6.72;;;2.40;99.90;;;;;;5079110;28;20121;-88
2023/11/16 10:50:35;;;;;;;17.15;7.03;;;2.40;99.90;;;;;;5097231;28;20079;-87
2023/11/16 10:53:06;;;;;;;9.48;7.25;;;2.40;99.90;;;;;;5098610;28;20051;-86
2023/11/16 10:55:36;;;;;;;17.73;8.27;;;2.50;99.90;;;;;;5114836;28;20091;-87
2023/11/16 10:58:05;;;;;;;10.23;7.15;;;2.40;99.90;;;;;;5119910;28;20111;-85
2023/11/16 11:00:35;;;;;;;9.82;6.47;;;2.40;99.90;;;;;;5108394;28;20024;-88
2023/11/16 11:03:05;;;;;;;13.40;6.55;;;2.50;99.90;;;;;;5122151;28;20030;-86
2023/11/16 11:05:32;;;;;;;17.83;7.18;;;2.50;99.90;;;;;;5091989;28;20119;-86
2023/11/16 11:08:01;;;;;;;10.52;7.60;;;2.50;99.90;;;;;;5122947;28;20024;-86
2023/11/16 11:10:33;;;;;;;13.05;8.98;;;2.40;99.90;;;;;;5113599;28;20008;-87
2023/11/16 11:13:03;;;;;;;8.45;6.40;;;2.40;99.90;;;;;;5121731;28;20020;-88
2023/11/16 11:15:37;;;;;;;13.98;6.63;;;2.30;99.90;;;;;;5128774;28;20352;-87
2023/11/16 11:18:06;;;;;;;9.93;6.15;;;2.30;99.90;;;;;;5124483;28;20122;-87
2023/11/16 11:20:44;;;;;;;7.10;5.55;;;2.30;99.90;;;;;;5103089;28;20106;-88
2023/11/16 11:23:15;;;;;;;8.73;5.15;;;2.30;99.90;;;;;;5107823;28;20050;-88
2023/11/16 11:25:42;;;;;;;5.97;4.60;;;2.30;99.90;;;;;;5106494;28;20023;-88
2023/11/16 11:28:13;;;;;;;7.90;4.53;;;2.30;99.90;;;;;;5099184;28;20047;-87
2023/11/16 11:30:54;;;;;;;8.30;4.45;;;2.30;99.90;;;;;;5115696;28;20263;-88
2023/11/16 11:33:35;;;;;;;6.05;3.80;;;2.30;99.90;;;;;;5080527;28;20059;-89
2023/11/16 11:36:08;;;;;;;7.72;4.35;;;2.30;99.90;;;;;;5104863;28;20031;-89
2023/11/16 11:38:38;;;;;;;6.55;4.07;;;2.20;99.90;;;;;;5122185;28;20059;-89
2023/11/16 11:41:08;;;;;;;6.82;4.03;;;2.20;99.90;;;;;;5120205;28;20026;-87
2023/11/16 11:43:38;;;;;;;7.30;4.57;;;2.20;99.90;;;;;;5115262;28;20020;-90
2023/11/16 11:46:09;;;;;;;5.05;3.60;;;2.30;99.90;;;;;;5119984;28;20016;-85
2023/11/16 11:48:40;;;;;;;6.00;3.72;;;2.30;99.40;;;;;;5119116;28;20012;-86
2023/11/16 11:51:11;;;;;;;5.80;4.53;;;2.30;99.30;;;;;;5133166;28;20031;-86
2023/11/16 11:53:38;;;;;;;5.30;3.88;;;2.20;99.10;;;;;;5126781;28;20042;-87
2023/11/16 11:56:06;;;;;;;8.85;4.50;;;2.20;99.20;;;;;;5086908;28;20034;-88
2023/11/16 11:58:37;;;;;;;7.25;4.50;;;2.20;99.30;;;;;;5113770;28;20019;-89
2023/11/16 12:01:04;;;;;;;7.55;3.65;;;2.30;99.40;;;;;;5115734;28;20026;-88
2023/11/16 12:03:31;;;;;;;;;;;2.20;99.30;;;;;;5115707;28;20020;-88
2023/11/16 12:05:59;;;;;;;5.43;3.13;;;2.30;99.40;;;;;;5117059;28;19972;-88
2023/11/16 12:08:42;;;;;;;6.85;4.47;;;2.30;99.30;;;;;;5111991;28;20043;-87
2023/11/16 12:11:10;;;;;;;4.20;2.63;;;2.30;99.20;;;;;;5102490;28;20026;-89
2023/11/16 12:13:40;;;;;;;4.68;3.55;;;2.30;99.20;;;;;;5092475;28;20615;-87
2023/11/16 12:16:07;;;;;;;7.35;3.60;;;2.20;99.10;;;;;;5099771;28;20088;-87
2023/11/16 12:18:41;;;;;;;4.93;4.15;;;2.20;99.10;;;;;;5096942;28;20072;-87
2023/11/16 12:21:14;;;;;;;4.88;3.10;;;2.20;99.00;;;;;;5090123;28;20039;-89
2023/11/16 12:23:51;;;;;;;6.07;3.58;;;2.30;98.90;;;;;;5113824;28;20034;-86
2023/11/16 12:26:28;;;;;;;54.17;49.05;;;2.30;98.80;;;;;;5115941;28;20388;-87
2023/11/16 12:28:57;;;;;;;8.95;4.10;;;2.20;98.70;;;;;;5097343;28;20111;-87
2023/11/16 12:31:27;;;;;;;6.38;3.35;;;2.30;98.70;;;;;;5107701;28;20048;-85
2023/11/16 12:33:56;;;;;;;9.88;4.05;;;2.30;98.70;;;;;;5094267;28;20021;-89
2023/11/16 12:36:24;;;;;;;7.03;3.83;;;2.40;98.80;;;;;;5093923;28;20073;-86
2023/11/16 12:38:52;;;;;;;5.70;3.92;;;2.40;98.60;;;;;;5103746;28;20038;-88
2023/11/16 12:41:19;;;;;;;7.70;3.17;;;2.50;98.50;;;;;;5111511;28;20024;-87
2023/11/16 12:43:45;;;;;;;4.88;3.03;;;2.50;98.30;;;;;;5096700;28;20047;-86
2023/11/16 12:46:11;;;;;;;7.90;4.22;;;2.50;98.10;;;;;;5118109;28;20039;-88
2023/11/16 12:48:38;;;;;;;7.63;3.20;;;2.40;98.10;;;;;;5103214;28;20081;-88
2023/11/16 12:51:06;;;;;;;4.50;3.07;;;2.40;98.00;;;;;;5094676;28;20059;-87